KEAN

Phifer Airfield Airport

Wheatland, Wyoming, USA
METAR KEAN 241155Z AUTO 22010G16KT 10SM CLR M06/M13 A2977 RMK AO2 T10581128 11046 21073
Observed Flight Rules
Feb-24 @ 11:55 UTC (25 minutes ago) Visual Flight Rules
Wind Visibility Clouds
220° at 10 knots
 Gusting to 16 knots
10 miles
  • Clear skies
Temperatures Readings
Current -6°C / 21°F
Dewpoint -13°C / 9°F
Humidity 58%
Altimeter 29.77" Hg
Pressure 1008 hPa
Elevation 1456
METAR KEAN 241155Z AUTO 22010G16KT 10SM CLR M06/M13 A2977 RMK AO2 T10581128 11046 21073
Observed Flight Rules
Feb-24 @ 11:55 UTC
(25 minutes ago)
VFR
Wind Visibility
220° at 10 knots
 Gusting to 16 knots
10 miles
Clouds
  • Clear skies
Temperature Dewpoint
-6°C / 21°F -13°C / 9°F
Humidity Altimeter Pressure
58% 29.77" Hg 1008 hPa